PWSweather.com
Personal Weather Stations
Station Observations
KPAEXPOR2
Wellington Estates, Export, PA 15632

Wellington EstatesExport, PA 15632

Lat: 40.446, Lon: -79.592

Elevation: 1286

Station Type: PWS1000-TD

http://www.westmorelandweather.com

Latest ConditionsUpdated 8:45:02 PM EDT Tuesday, Jul 29, 2014
Currently Today's Max Today's Min Today's Average
Temperature 58.3°F14.6°C 66.0°F18.9°C 49.1°F9.5°C 57.7°F14.3°C
Dew Point 53.1°F11.7°C 55.3°F12.9°C 49.1°F9.5°C 51.9°F11.1°C
Winds Calm Calm 5.1 mph S8.2 kmh S - 2.0 mph 3.2 kmh
Wind Gusts -- 8.3 mph13.4 kmh - -
Humidity 83% 100% 57% 83%
Pressure 30.04 in1017.3 mb 30.04 in1017.3 mb 29.94 in1013.9 mb -
Hour Temp Dew Point Humidity Winds Wind Gusts Pressure Precip Precip Rate Daily Precip Total
08:45 PM 58.3°F14.6°C 53.1°F11.7°C 83% Calm Calm -- 30.04 in1017.3 mb 0.00 in0.0 mm 0.00 in/hr0.0 mm/hr 0.00 in0.0 mm
08:30 PM 58.6°F14.8°C 53.2°F11.8°C 82% 0.4 mph NW0.6 kmh NW 0.7 mph1.1 kmh 30.04 in1017.3 mb 0.00 in0.0 mm 0.00 in/hr0.0 mm/hr 0.00 in0.0 mm
08:15 PM 59.2°F15.1°C 53.7°F12.1°C 82% 0.5 mph NW0.8 kmh NW 0.7 mph1.1 kmh 30.04 in1017.3 mb 0.00 in0.0 mm 0.00 in/hr0.0 mm/hr 0.00 in0.0 mm
08:00 PM 60.1°F15.6°C 54.2°F12.3°C 81% 1.4 mph NW2.3 kmh NW 1.6 mph2.6 kmh 30.04 in1017.3 mb 0.00 in0.0 mm 0.00 in/hr0.0 mm/hr 0.00 in0.0 mm
07:45 PM 61.0°F16.1°C 54.1°F12.3°C 78% 1.7 mph NW2.7 kmh NW 2.2 mph3.5 kmh 30.04 in1017.3 mb 0.00 in0.0 mm 0.00 in/hr0.0 mm/hr 0.00 in0.0 mm
07:30 PM 61.1°F16.2°C 53.5°F11.9°C 76% 1.4 mph N2.3 kmh N 1.6 mph2.6 kmh 30.03 in1016.9 mb 0.00 in0.0 mm 0.00 in/hr0.0 mm/hr 0.00 in0.0 mm
07:15 PM 61.7°F16.5°C 52.2°F11.2°C 71% Calm Calm -- 30.04 in1017.3 mb 0.00 in0.0 mm 0.00 in/hr0.0 mm/hr 0.00 in0.0 mm
07:00 PM 63.3°F17.4°C 51.8°F11.0°C 66% 1.8 mph SSE2.9 kmh SSE 3.8 mph6.1 kmh 30.03 in1016.9 mb 0.00 in0.0 mm 0.00 in/hr0.0 mm/hr 0.00 in0.0 mm
06:45 PM 64.2°F17.9°C 50.9°F10.5°C 62% 2.9 mph S4.7 kmh S 4.5 mph7.2 kmh 30.03 in1016.9 mb 0.00 in0.0 mm 0.00 in/hr0.0 mm/hr 0.00 in0.0 mm
06:30 PM 65.1°F18.4°C 52.2°F11.2°C 63% 3.4 mph S5.5 kmh S 5.4 mph8.7 kmh 30.03 in1016.9 mb 0.00 in0.0 mm 0.00 in/hr0.0 mm/hr 0.00 in0.0 mm
06:15 PM 64.9°F18.3°C 54.1°F12.3°C 68% 1.0 mph NNE1.6 kmh NNE 1.6 mph2.6 kmh 30.03 in1016.9 mb 0.00 in0.0 mm 0.00 in/hr0.0 mm/hr 0.00 in0.0 mm
06:00 PM 65.1°F18.4°C 54.3°F12.4°C 68% 1.3 mph E2.1 kmh E 2.2 mph3.5 kmh 30.03 in1016.9 mb 0.00 in0.0 mm 0.00 in/hr0.0 mm/hr 0.00 in0.0 mm
05:45 PM 65.1°F18.4°C 52.6°F11.4°C 64% 2.4 mph SE3.9 kmh SE 3.8 mph6.1 kmh 30.02 in1016.6 mb 0.00 in0.0 mm 0.00 in/hr0.0 mm/hr 0.00 in0.0 mm
05:30 PM 65.3°F18.5°C 53.7°F12.1°C 66% 1.5 mph S2.4 kmh S 2.2 mph3.5 kmh 30.02 in1016.6 mb 0.00 in0.0 mm 0.00 in/hr0.0 mm/hr 0.00 in0.0 mm
05:15 PM 65.6°F18.7°C 52.3°F11.3°C 62% 2.3 mph SW3.7 kmh SW 4.5 mph7.2 kmh 30.02 in1016.6 mb 0.00 in0.0 mm 0.00 in/hr0.0 mm/hr 0.00 in0.0 mm
05:00 PM 65.6°F18.7°C 50.5°F10.3°C 58% 3.7 mph SSE6.0 kmh SSE 6.0 mph9.7 kmh 30.02 in1016.6 mb 0.00 in0.0 mm 0.00 in/hr0.0 mm/hr 0.00 in0.0 mm
04:45 PM 65.8°F18.8°C 50.2°F10.1°C 57% 4.6 mph SSW7.4 kmh SSW 7.6 mph12.2 kmh 30.02 in1016.6 mb 0.00 in0.0 mm 0.00 in/hr0.0 mm/hr 0.00 in0.0 mm
04:30 PM 64.9°F18.3°C 52.5°F11.4°C 64% 2.3 mph SSE3.7 kmh SSE 3.8 mph6.1 kmh 30.02 in1016.6 mb 0.00 in0.0 mm 0.00 in/hr0.0 mm/hr 0.00 in0.0 mm
04:15 PM 64.6°F18.1°C 52.1°F11.2°C 64% 2.0 mph S3.2 kmh S 3.1 mph5.0 kmh 30.02 in1016.6 mb 0.00 in0.0 mm 0.00 in/hr0.0 mm/hr 0.00 in0.0 mm
04:00 PM 64.7°F18.2°C 49.2°F9.6°C 57% 5.1 mph S8.2 kmh S 8.3 mph13.4 kmh 30.01 in1016.3 mb 0.00 in0.0 mm 0.00 in/hr0.0 mm/hr 0.00 in0.0 mm
03:45 PM 66.0°F18.9°C 50.8°F10.4°C 58% 4.0 mph S6.4 kmh S 5.4 mph8.7 kmh 30.01 in1016.3 mb 0.00 in0.0 mm 0.00 in/hr0.0 mm/hr 0.00 in0.0 mm
03:30 PM 65.3°F18.5°C 51.5°F10.8°C 61% 3.9 mph SE6.3 kmh SE 6.9 mph11.1 kmh 30.02 in1016.6 mb 0.00 in0.0 mm 0.00 in/hr0.0 mm/hr 0.00 in0.0 mm
03:15 PM 64.0°F17.8°C 50.8°F10.4°C 62% 4.4 mph S7.1 kmh S 6.0 mph9.7 kmh 30.02 in1016.6 mb 0.00 in0.0 mm 0.00 in/hr0.0 mm/hr 0.00 in0.0 mm
03:00 PM 64.4°F18.0°C 50.7°F10.4°C 61% 3.4 mph S5.5 kmh S 6.0 mph9.7 kmh 30.02 in1016.6 mb 0.00 in0.0 mm 0.00 in/hr0.0 mm/hr 0.00 in0.0 mm
02:45 PM 64.4°F18.0°C 50.2°F10.1°C 60% 3.9 mph S6.3 kmh S 6.0 mph9.7 kmh 30.02 in1016.6 mb 0.00 in0.0 mm 0.00 in/hr0.0 mm/hr 0.00 in0.0 mm
02:30 PM 63.8°F17.7°C 50.6°F10.3°C 62% 2.8 mph SSW4.5 kmh SSW 4.5 mph7.2 kmh 30.02 in1016.6 mb 0.00 in0.0 mm 0.00 in/hr0.0 mm/hr 0.00 in0.0 mm
02:15 PM 62.2°F16.8°C 51.9°F11.1°C 69% 2.4 mph SW3.9 kmh SW 3.8 mph6.1 kmh 30.02 in1016.6 mb 0.00 in0.0 mm 0.00 in/hr0.0 mm/hr 0.00 in0.0 mm
02:00 PM 61.9°F16.6°C 52.8°F11.6°C 72% 2.5 mph S4.0 kmh S 3.1 mph5.0 kmh 30.02 in1016.6 mb 0.00 in0.0 mm 0.00 in/hr0.0 mm/hr 0.00 in0.0 mm
01:45 PM 61.7°F16.5°C 51.8°F11.0°C 70% 2.7 mph SSE4.3 kmh SSE 4.5 mph7.2 kmh 30.02 in1016.6 mb 0.00 in0.0 mm 0.00 in/hr0.0 mm/hr 0.00 in0.0 mm
01:30 PM 61.5°F16.4°C 51.3°F10.7°C 69% 4.8 mph S7.7 kmh S 6.9 mph11.1 kmh 30.02 in1016.6 mb 0.00 in0.0 mm 0.00 in/hr0.0 mm/hr 0.00 in0.0 mm
01:15 PM 62.0°F16.7°C 51.0°F10.6°C 67% 3.6 mph S5.8 kmh S 4.5 mph7.2 kmh 30.02 in1016.6 mb 0.00 in0.0 mm 0.00 in/hr0.0 mm/hr 0.00 in0.0 mm
01:00 PM 62.6°F17.0°C 50.7°F10.4°C 65% 2.3 mph S3.7 kmh S 3.8 mph6.1 kmh 30.02 in1016.6 mb 0.00 in0.0 mm 0.00 in/hr0.0 mm/hr 0.00 in0.0 mm
12:45 PM 63.5°F17.5°C 50.2°F10.1°C 62% 2.6 mph S4.2 kmh S 4.5 mph7.2 kmh 30.02 in1016.6 mb 0.00 in0.0 mm 0.00 in/hr0.0 mm/hr 0.00 in0.0 mm
12:30 PM 64.4°F18.0°C 50.2°F10.1°C 60% 3.3 mph SE5.3 kmh SE 6.0 mph9.7 kmh 30.02 in1016.6 mb 0.00 in0.0 mm 0.00 in/hr0.0 mm/hr 0.00 in0.0 mm
12:15 PM 61.9°F16.6°C 50.0°F10.0°C 65% 4.4 mph S7.1 kmh S 6.9 mph11.1 kmh 30.02 in1016.6 mb 0.00 in0.0 mm 0.00 in/hr0.0 mm/hr 0.00 in0.0 mm
12:00 PM 62.0°F16.7°C 52.2°F11.2°C 70% 2.9 mph S4.7 kmh S 6.9 mph11.1 kmh 30.03 in1016.9 mb 0.00 in0.0 mm 0.00 in/hr0.0 mm/hr 0.00 in0.0 mm
11:45 AM 61.1°F16.2°C 53.2°F11.8°C 75% 2.0 mph SE3.2 kmh SE 3.1 mph5.0 kmh 30.02 in1016.6 mb 0.00 in0.0 mm 0.00 in/hr0.0 mm/hr 0.00 in0.0 mm
11:30 AM 60.2°F15.7°C 52.3°F11.3°C 75% 4.0 mph S6.4 kmh S 6.9 mph11.1 kmh 30.02 in1016.6 mb 0.00 in0.0 mm 0.00 in/hr0.0 mm/hr 0.00 in0.0 mm
11:15 AM 59.9°F15.5°C 52.3°F11.3°C 76% 3.6 mph WSW5.8 kmh WSW 6.0 mph9.7 kmh 30.02 in1016.6 mb 0.00 in0.0 mm 0.00 in/hr0.0 mm/hr 0.00 in0.0 mm
11:00 AM 60.1°F15.6°C 54.2°F12.3°C 81% 2.1 mph NE3.4 kmh NE 3.1 mph5.0 kmh 30.02 in1016.6 mb 0.00 in0.0 mm 0.00 in/hr0.0 mm/hr 0.00 in0.0 mm
10:45 AM 59.3°F15.2°C 54.2°F12.3°C 83% 2.8 mph S4.5 kmh S 5.4 mph8.7 kmh 30.02 in1016.6 mb 0.00 in0.0 mm 0.00 in/hr0.0 mm/hr 0.00 in0.0 mm
10:30 AM 58.4°F14.7°C 54.3°F12.4°C 86% 3.3 mph S5.3 kmh S 6.0 mph9.7 kmh 30.01 in1016.3 mb 0.00 in0.0 mm 0.00 in/hr0.0 mm/hr 0.00 in0.0 mm
10:15 AM 57.5°F14.2°C 53.4°F11.9°C 86% 4.5 mph S7.2 kmh S 6.9 mph11.1 kmh 30.01 in1016.3 mb 0.00 in0.0 mm 0.00 in/hr0.0 mm/hr 0.00 in0.0 mm
10:00 AM 57.2°F14.0°C 54.6°F12.6°C 91% 3.9 mph S6.3 kmh S 6.0 mph9.7 kmh 30.02 in1016.6 mb 0.00 in0.0 mm 0.00 in/hr0.0 mm/hr 0.00 in0.0 mm
09:45 AM 56.6°F13.7°C 54.9°F12.7°C 94% 3.3 mph S5.3 kmh S 5.4 mph8.7 kmh 30.01 in1016.3 mb 0.00 in0.0 mm 0.00 in/hr0.0 mm/hr 0.00 in0.0 mm
09:30 AM 56.1°F13.4°C 55.3°F12.9°C 97% 2.6 mph S4.2 kmh S 4.5 mph7.2 kmh 30.01 in1016.3 mb 0.00 in0.0 mm 0.00 in/hr0.0 mm/hr 0.00 in0.0 mm
09:15 AM 55.4°F13.0°C 54.8°F12.7°C 98% 3.4 mph S5.5 kmh S 5.4 mph8.7 kmh 30.01 in1016.3 mb 0.00 in0.0 mm 0.00 in/hr0.0 mm/hr 0.00 in0.0 mm
09:00 AM 54.5°F12.5°C 54.5°F12.5°C 100% 2.5 mph S4.0 kmh S 3.8 mph6.1 kmh 30.01 in1016.3 mb 0.00 in0.0 mm 0.00 in/hr0.0 mm/hr 0.00 in0.0 mm
08:45 AM 53.6°F12.0°C 53.6°F12.0°C 100% 3.6 mph S5.8 kmh S 5.4 mph8.7 kmh 30.00 in1015.9 mb 0.00 in0.0 mm 0.00 in/hr0.0 mm/hr 0.00 in0.0 mm
08:30 AM 53.2°F11.8°C 53.2°F11.8°C 100% 3.6 mph S5.8 kmh S 4.5 mph7.2 kmh 30.00 in1015.9 mb 0.00 in0.0 mm 0.00 in/hr0.0 mm/hr 0.00 in0.0 mm
08:15 AM 52.7°F11.5°C 52.7°F11.5°C 100% 1.8 mph S2.9 kmh S 2.2 mph3.5 kmh 30.00 in1015.9 mb 0.00 in0.0 mm 0.00 in/hr0.0 mm/hr 0.00 in0.0 mm
08:00 AM 52.1°F11.2°C 52.1°F11.2°C 100% 1.5 mph S2.4 kmh S 3.1 mph5.0 kmh 30.00 in1015.9 mb 0.00 in0.0 mm 0.00 in/hr0.0 mm/hr 0.00 in0.0 mm
07:45 AM 51.8°F11.0°C 51.8°F11.0°C 100% 1.5 mph SSW2.4 kmh SSW 2.2 mph3.5 kmh 29.99 in1015.6 mb 0.00 in0.0 mm 0.00 in/hr0.0 mm/hr 0.00 in0.0 mm
07:30 AM 51.4°F10.8°C 51.4°F10.8°C 100% 0.9 mph S1.4 kmh S 2.2 mph3.5 kmh 29.98 in1015.2 mb 0.00 in0.0 mm 0.00 in/hr0.0 mm/hr 0.00 in0.0 mm
07:15 AM 51.1°F10.6°C 51.1°F10.6°C 100% Calm Calm -- 29.98 in1015.2 mb 0.00 in0.0 mm 0.00 in/hr0.0 mm/hr 0.00 in0.0 mm
07:00 AM 50.9°F10.5°C 50.9°F10.5°C 100% 0.8 mph SW1.3 kmh SW 1.6 mph2.6 kmh 29.98 in1015.2 mb 0.00 in0.0 mm 0.00 in/hr0.0 mm/hr 0.00 in0.0 mm
06:45 AM 50.5°F10.3°C 50.5°F10.3°C 100% 1.8 mph S2.9 kmh S 2.2 mph3.5 kmh 29.97 in1014.9 mb 0.00 in0.0 mm 0.00 in/hr0.0 mm/hr 0.00 in0.0 mm
06:30 AM 50.5°F10.3°C 50.5°F10.3°C 100% 2.9 mph S4.7 kmh S 3.1 mph5.0 kmh 29.97 in1014.9 mb 0.00 in0.0 mm 0.00 in/hr0.0 mm/hr 0.00 in0.0 mm
05:00 AM 49.1°F9.5°C 49.1°F9.5°C 100% Calm Calm -- 29.95 in1014.2 mb 0.00 in0.0 mm 0.00 in/hr0.0 mm/hr 0.00 in0.0 mm
04:45 AM 49.4°F9.7°C 49.4°F9.7°C 100% Calm Calm -- 29.95 in1014.2 mb 0.00 in0.0 mm 0.00 in/hr0.0 mm/hr 0.00 in0.0 mm
04:30 AM 49.6°F9.8°C 49.6°F9.8°C 100% Calm Calm -- 29.95 in1014.2 mb 0.00 in0.0 mm 0.00 in/hr0.0 mm/hr 0.00 in0.0 mm
04:15 AM 49.4°F9.7°C 49.4°F9.7°C 100% Calm Calm -- 29.95 in1014.2 mb 0.00 in0.0 mm 0.00 in/hr0.0 mm/hr 0.00 in0.0 mm
04:00 AM 49.4°F9.7°C 49.4°F9.7°C 100% Calm Calm -- 29.95 in1014.2 mb 0.00 in0.0 mm 0.00 in/hr0.0 mm/hr 0.00 in0.0 mm
03:45 AM 49.4°F9.7°C 49.4°F9.7°C 100% 1.1 mph SW1.8 kmh SW 3.1 mph5.0 kmh 29.95 in1014.2 mb 0.00 in0.0 mm 0.00 in/hr0.0 mm/hr 0.00 in0.0 mm
03:30 AM 49.4°F9.7°C 49.4°F9.7°C 100% 2.7 mph S4.3 kmh S 3.8 mph6.1 kmh 29.94 in1013.9 mb 0.00 in0.0 mm 0.00 in/hr0.0 mm/hr 0.00 in0.0 mm
03:15 AM 49.6°F9.8°C 49.4°F9.7°C 99% 1.5 mph SSW2.4 kmh SSW 3.1 mph5.0 kmh 29.94 in1013.9 mb 0.00 in0.0 mm 0.00 in/hr0.0 mm/hr 0.00 in0.0 mm
03:00 AM 49.8°F9.9°C 49.5°F9.7°C 99% 0.2 mph SSW0.3 kmh SSW 1.6 mph2.6 kmh 29.95 in1014.2 mb 0.00 in0.0 mm 0.00 in/hr0.0 mm/hr 0.00 in0.0 mm
02:45 AM 50.2°F10.1°C 50.2°F10.1°C 100% Calm Calm 0.7 mph1.1 kmh 29.95 in1014.2 mb 0.00 in0.0 mm 0.00 in/hr0.0 mm/hr 0.00 in0.0 mm
02:30 AM 50.3°F10.2°C 50.1°F10.1°C 99% 0.2 mph N0.3 kmh N 0.7 mph1.1 kmh 29.95 in1014.2 mb 0.00 in0.0 mm 0.00 in/hr0.0 mm/hr 0.00 in0.0 mm
02:15 AM 50.5°F10.3°C 50.3°F10.2°C 99% 0.4 mph NW0.6 kmh NW 1.6 mph2.6 kmh 29.95 in1014.2 mb 0.00 in0.0 mm 0.00 in/hr0.0 mm/hr 0.00 in0.0 mm
02:00 AM 50.7°F10.4°C 50.4°F10.2°C 99% 1.1 mph SW1.8 kmh SW 3.1 mph5.0 kmh 29.96 in1014.6 mb 0.00 in0.0 mm 0.00 in/hr0.0 mm/hr 0.00 in0.0 mm
01:45 AM 51.1°F10.6°C 50.8°F10.4°C 99% 0.5 mph SW0.8 kmh SW 0.7 mph1.1 kmh 29.96 in1014.6 mb 0.00 in0.0 mm 0.00 in/hr0.0 mm/hr 0.00 in0.0 mm
01:30 AM 51.6°F10.9°C 51.3°F10.7°C 99% Calm Calm -- 29.95 in1014.2 mb 0.00 in0.0 mm 0.00 in/hr0.0 mm/hr 0.00 in0.0 mm
01:15 AM 52.0°F11.1°C 51.4°F10.8°C 98% Calm Calm -- 29.96 in1014.6 mb 0.00 in0.0 mm 0.00 in/hr0.0 mm/hr 0.00 in0.0 mm
01:00 AM 52.5°F11.4°C 52.0°F11.1°C 98% Calm Calm -- 29.96 in1014.6 mb 0.00 in0.0 mm 0.00 in/hr0.0 mm/hr 0.00 in0.0 mm
12:45 AM 52.9°F11.6°C 52.3°F11.3°C 98% Calm Calm -- 29.95 in1014.2 mb 0.00 in0.0 mm 0.00 in/hr0.0 mm/hr 0.00 in0.0 mm
12:30 AM 53.4°F11.9°C 52.9°F11.6°C 98% 0.1 mph NW0.2 kmh NW 0.7 mph1.1 kmh 29.96 in1014.6 mb 0.00 in0.0 mm 0.00 in/hr0.0 mm/hr 0.00 in0.0 mm
12:15 AM 54.1°F12.3°C 53.6°F12.0°C 98% 0.4 mph N0.6 kmh N 0.7 mph1.1 kmh 29.96 in1014.6 mb 0.00 in0.0 mm 0.00 in/hr0.0 mm/hr 0.00 in0.0 mm
12:00 AM 54.5°F12.5°C 53.9°F12.2°C 98% 0.4 mph N0.6 kmh N 1.6 mph2.6 kmh 29.95 in1014.2 mb 0.00 in0.0 mm 0.00 in/hr0.0 mm/hr 0.00 in0.0 mm